sensor_id;sensor_type;location;lat;lon;timestamp;P1;durP1;ratioP1;P2;durP2;ratioP2
8652;SDS011;4364;52.426;9.424;2024-02-21T00:00:29;35.97;;;19.73;;
8652;SDS011;4364;52.426;9.424;2024-02-21T00:02:56;35.97;;;19.47;;
8652;SDS011;4364;52.426;9.424;2024-02-21T00:05:26;32.90;;;19.43;;
8652;SDS011;4364;52.426;9.424;2024-02-21T00:07:53;37.40;;;19.13;;
8652;SDS011;4364;52.426;9.424;2024-02-21T00:10:19;42.20;;;20.60;;
8652;SDS011;4364;52.426;9.424;2024-02-21T00:12:46;34.43;;;19.57;;
8652;SDS011;4364;52.426;9.424;2024-02-21T00:15:12;37.60;;;20.17;;
8652;SDS011;4364;52.426;9.424;2024-02-21T00:17:39;41.23;;;20.13;;
8652;SDS011;4364;52.426;9.424;2024-02-21T00:20:06;45.37;;;21.03;;
8652;SDS011;4364;52.426;9.424;2024-02-21T00:22:34;38.50;;;20.77;;
8652;SDS011;4364;52.426;9.424;2024-02-21T00:25:00;42.27;;;20.57;;
8652;SDS011;4364;52.426;9.424;2024-02-21T00:27:26;40.53;;;21.13;;
8652;SDS011;4364;52.426;9.424;2024-02-21T00:29:53;46.50;;;22.17;;
8652;SDS011;4364;52.426;9.424;2024-02-21T00:32:20;43.07;;;20.83;;
8652;SDS011;4364;52.426;9.424;2024-02-21T00:34:47;42.20;;;22.27;;
8652;SDS011;4364;52.426;9.424;2024-02-21T00:37:13;37.00;;;21.67;;
8652;SDS011;4364;52.426;9.424;2024-02-21T00:39:40;33.57;;;19.70;;
8652;SDS011;4364;52.426;9.424;2024-02-21T00:42:06;39.33;;;22.07;;
8652;SDS011;4364;52.426;9.424;2024-02-21T00:44:34;41.30;;;21.87;;
8652;SDS011;4364;52.426;9.424;2024-02-21T00:47:01;42.50;;;22.47;;
8652;SDS011;4364;52.426;9.424;2024-02-21T00:49:27;35.27;;;20.20;;
8652;SDS011;4364;52.426;9.424;2024-02-21T00:51:54;38.97;;;21.60;;
8652;SDS011;4364;52.426;9.424;2024-02-21T00:54:20;41.80;;;20.30;;
8652;SDS011;4364;52.426;9.424;2024-02-21T00:56:46;42.60;;;21.60;;
8652;SDS011;4364;52.426;9.424;2024-02-21T00:59:13;40.20;;;20.97;;
8652;SDS011;4364;52.426;9.424;2024-02-21T01:01:39;38.53;;;21.53;;
8652;SDS011;4364;52.426;9.424;2024-02-21T01:04:09;42.73;;;22.03;;
8652;SDS011;4364;52.426;9.424;2024-02-21T01:06:36;40.50;;;21.97;;
8652;SDS011;4364;52.426;9.424;2024-02-21T01:09:03;38.40;;;21.37;;
8652;SDS011;4364;52.426;9.424;2024-02-21T01:11:30;37.20;;;21.30;;
8652;SDS011;4364;52.426;9.424;2024-02-21T01:13:56;39.70;;;22.30;;
8652;SDS011;4364;52.426;9.424;2024-02-21T01:16:23;33.00;;;21.33;;
8652;SDS011;4364;52.426;9.424;2024-02-21T01:18:50;39.27;;;21.60;;
8652;SDS011;4364;52.426;9.424;2024-02-21T01:21:16;40.60;;;22.30;;
8652;SDS011;4364;52.426;9.424;2024-02-21T01:23:42;37.40;;;22.00;;
8652;SDS011;4364;52.426;9.424;2024-02-21T01:26:09;40.70;;;22.70;;
8652;SDS011;4364;52.426;9.424;2024-02-21T01:28:40;39.50;;;21.10;;
8652;SDS011;4364;52.426;9.424;2024-02-21T01:31:07;44.30;;;24.27;;
8652;SDS011;4364;52.426;9.424;2024-02-21T01:33:34;40.33;;;22.10;;
8652;SDS011;4364;52.426;9.424;2024-02-21T01:36:05;38.87;;;21.63;;
8652;SDS011;4364;52.426;9.424;2024-02-21T01:38:35;38.77;;;21.60;;
8652;SDS011;4364;52.426;9.424;2024-02-21T01:41:01;40.77;;;22.33;;
8652;SDS011;4364;52.426;9.424;2024-02-21T01:43:28;40.03;;;21.57;;
8652;SDS011;4364;52.426;9.424;2024-02-21T01:45:56;38.10;;;22.30;;
8652;SDS011;4364;52.426;9.424;2024-02-21T01:48:23;39.73;;;22.27;;
8652;SDS011;4364;52.426;9.424;2024-02-21T01:50:50;38.50;;;22.57;;
8652;SDS011;4364;52.426;9.424;2024-02-21T01:53:21;34.53;;;22.30;;
8652;SDS011;4364;52.426;9.424;2024-02-21T01:55:50;35.37;;;20.33;;
8652;SDS011;4364;52.426;9.424;2024-02-21T01:58:16;35.43;;;21.87;;
8652;SDS011;4364;52.426;9.424;2024-02-21T02:00:45;35.30;;;21.47;;
8652;SDS011;4364;52.426;9.424;2024-02-21T02:03:14;39.03;;;21.53;;
8652;SDS011;4364;52.426;9.424;2024-02-21T02:05:43;37.47;;;21.43;;
8652;SDS011;4364;52.426;9.424;2024-02-21T02:08:10;35.93;;;21.23;;
8652;SDS011;4364;52.426;9.424;2024-02-21T02:10:37;34.87;;;20.47;;
8652;SDS011;4364;52.426;9.424;2024-02-21T02:13:05;34.03;;;21.00;;
8652;SDS011;4364;52.426;9.424;2024-02-21T02:15:40;36.40;;;21.37;;
8652;SDS011;4364;52.426;9.424;2024-02-21T02:18:08;35.57;;;19.97;;
8652;SDS011;4364;52.426;9.424;2024-02-21T02:20:36;34.63;;;21.07;;
8652;SDS011;4364;52.426;9.424;2024-02-21T02:25:46;33.33;;;21.97;;
8652;SDS011;4364;52.426;9.424;2024-02-21T02:28:19;36.03;;;21.97;;
8652;SDS011;4364;52.426;9.424;2024-02-21T02:30:46;40.30;;;21.43;;
8652;SDS011;4364;52.426;9.424;2024-02-21T02:33:13;37.50;;;21.87;;
8652;SDS011;4364;52.426;9.424;2024-02-21T02:35:40;35.87;;;20.77;;
8652;SDS011;4364;52.426;9.424;2024-02-21T02:38:07;36.97;;;21.03;;
8652;SDS011;4364;52.426;9.424;2024-02-21T02:40:34;35.97;;;21.33;;
8652;SDS011;4364;52.426;9.424;2024-02-21T02:43:01;36.97;;;20.57;;
8652;SDS011;4364;52.426;9.424;2024-02-21T02:45:28;36.47;;;20.93;;
8652;SDS011;4364;52.426;9.424;2024-02-21T02:47:54;41.60;;;21.20;;
8652;SDS011;4364;52.426;9.424;2024-02-21T02:50:23;34.20;;;20.13;;
8652;SDS011;4364;52.426;9.424;2024-02-21T02:52:50;41.67;;;20.33;;
8652;SDS011;4364;52.426;9.424;2024-02-21T02:55:17;32.53;;;21.07;;
8652;SDS011;4364;52.426;9.424;2024-02-21T02:57:44;30.60;;;20.23;;
8652;SDS011;4364;52.426;9.424;2024-02-21T03:00:11;35.53;;;20.13;;
8652;SDS011;4364;52.426;9.424;2024-02-21T03:02:39;35.83;;;20.50;;
8652;SDS011;4364;52.426;9.424;2024-02-21T03:05:13;30.43;;;19.03;;
8652;SDS011;4364;52.426;9.424;2024-02-21T03:07:42;36.27;;;20.37;;
8652;SDS011;4364;52.426;9.424;2024-02-21T03:10:10;36.83;;;19.30;;
8652;SDS011;4364;52.426;9.424;2024-02-21T03:12:37;31.77;;;19.40;;
8652;SDS011;4364;52.426;9.424;2024-02-21T03:15:04;31.97;;;19.53;;
8652;SDS011;4364;52.426;9.424;2024-02-21T03:17:32;30.47;;;19.13;;
8652;SDS011;4364;52.426;9.424;2024-02-21T03:20:03;33.30;;;18.80;;
8652;SDS011;4364;52.426;9.424;2024-02-21T03:22:36;34.87;;;19.37;;
8652;SDS011;4364;52.426;9.424;2024-02-21T03:25:04;35.77;;;19.63;;
8652;SDS011;4364;52.426;9.424;2024-02-21T03:27:31;38.30;;;19.93;;
8652;SDS011;4364;52.426;9.424;2024-02-21T03:29:58;38.43;;;20.37;;
8652;SDS011;4364;52.426;9.424;2024-02-21T03:32:24;38.07;;;20.80;;
8652;SDS011;4364;52.426;9.424;2024-02-21T03:34:51;36.13;;;21.27;;
8652;SDS011;4364;52.426;9.424;2024-02-21T03:37:17;34.40;;;21.00;;
8652;SDS011;4364;52.426;9.424;2024-02-21T03:39:44;36.57;;;20.53;;
8652;SDS011;4364;52.426;9.424;2024-02-21T03:42:11;34.13;;;20.63;;
8652;SDS011;4364;52.426;9.424;2024-02-21T03:44:38;38.77;;;21.03;;
8652;SDS011;4364;52.426;9.424;2024-02-21T03:47:05;34.57;;;20.30;;
8652;SDS011;4364;52.426;9.424;2024-02-21T03:49:31;39.37;;;21.07;;
8652;SDS011;4364;52.426;9.424;2024-02-21T03:51:58;33.17;;;20.07;;
8652;SDS011;4364;52.426;9.424;2024-02-21T03:54:24;35.50;;;20.43;;
8652;SDS011;4364;52.426;9.424;2024-02-21T03:56:51;33.73;;;20.17;;
8652;SDS011;4364;52.426;9.424;2024-02-21T03:59:17;40.00;;;20.03;;
8652;SDS011;4364;52.426;9.424;2024-02-21T04:01:44;40.50;;;20.60;;
8652;SDS011;4364;52.426;9.424;2024-02-21T04:04:10;37.07;;;20.73;;
8652;SDS011;4364;52.426;9.424;2024-02-21T04:06:45;33.50;;;20.07;;
8652;SDS011;4364;52.426;9.424;2024-02-21T04:09:13;34.83;;;19.70;;
8652;SDS011;4364;52.426;9.424;2024-02-21T04:11:39;36.70;;;21.53;;
8652;SDS011;4364;52.426;9.424;2024-02-21T04:14:06;37.63;;;21.73;;
8652;SDS011;4364;52.426;9.424;2024-02-21T04:16:32;35.77;;;20.40;;
8652;SDS011;4364;52.426;9.424;2024-02-21T04:19:00;38.23;;;21.13;;
8652;SDS011;4364;52.426;9.424;2024-02-21T04:21:28;36.03;;;21.37;;
8652;SDS011;4364;52.426;9.424;2024-02-21T04:23:54;39.87;;;21.03;;
8652;SDS011;4364;52.426;9.424;2024-02-21T04:26:21;38.17;;;21.17;;
8652;SDS011;4364;52.426;9.424;2024-02-21T04:28:48;40.10;;;20.63;;
8652;SDS011;4364;52.426;9.424;2024-02-21T04:31:14;41.57;;;22.30;;
8652;SDS011;4364;52.426;9.424;2024-02-21T04:33:41;40.83;;;21.67;;
8652;SDS011;4364;52.426;9.424;2024-02-21T04:36:08;46.60;;;22.57;;
8652;SDS011;4364;52.426;9.424;2024-02-21T04:38:35;32.00;;;20.73;;
8652;SDS011;4364;52.426;9.424;2024-02-21T04:41:02;45.47;;;23.00;;
8652;SDS011;4364;52.426;9.424;2024-02-21T04:43:29;39.40;;;22.43;;
8652;SDS011;4364;52.426;9.424;2024-02-21T04:45:55;45.23;;;23.53;;
8652;SDS011;4364;52.426;9.424;2024-02-21T04:48:22;40.30;;;22.33;;
8652;SDS011;4364;52.426;9.424;2024-02-21T04:50:48;44.93;;;23.63;;
8652;SDS011;4364;52.426;9.424;2024-02-21T04:53:15;44.13;;;24.27;;
8652;SDS011;4364;52.426;9.424;2024-02-21T04:55:42;42.60;;;24.23;;
8652;SDS011;4364;52.426;9.424;2024-02-21T04:58:08;38.40;;;23.50;;
8652;SDS011;4364;52.426;9.424;2024-02-21T05:00:35;41.43;;;24.23;;
8652;SDS011;4364;52.426;9.424;2024-02-21T05:03:01;42.10;;;23.87;;
8652;SDS011;4364;52.426;9.424;2024-02-21T05:05:28;40.77;;;23.27;;
8652;SDS011;4364;52.426;9.424;2024-02-21T05:07:55;42.03;;;23.73;;
8652;SDS011;4364;52.426;9.424;2024-02-21T05:10:22;47.73;;;23.20;;
8652;SDS011;4364;52.426;9.424;2024-02-21T05:12:49;40.33;;;24.07;;
8652;SDS011;4364;52.426;9.424;2024-02-21T05:15:16;34.13;;;22.13;;
8652;SDS011;4364;52.426;9.424;2024-02-21T05:17:42;42.93;;;23.70;;
8652;SDS011;4364;52.426;9.424;2024-02-21T05:20:10;42.70;;;22.27;;
8652;SDS011;4364;52.426;9.424;2024-02-21T05:22:37;42.33;;;22.73;;
8652;SDS011;4364;52.426;9.424;2024-02-21T05:25:03;44.73;;;22.20;;
8652;SDS011;4364;52.426;9.424;2024-02-21T05:27:30;37.80;;;21.97;;
8652;SDS011;4364;52.426;9.424;2024-02-21T05:29:57;38.70;;;22.67;;
8652;SDS011;4364;52.426;9.424;2024-02-21T05:32:25;42.90;;;23.17;;
8652;SDS011;4364;52.426;9.424;2024-02-21T05:34:52;38.60;;;22.60;;
8652;SDS011;4364;52.426;9.424;2024-02-21T05:37:18;41.03;;;23.17;;
8652;SDS011;4364;52.426;9.424;2024-02-21T05:39:45;40.73;;;22.57;;
8652;SDS011;4364;52.426;9.424;2024-02-21T05:42:11;39.63;;;23.27;;
8652;SDS011;4364;52.426;9.424;2024-02-21T05:44:38;43.23;;;25.07;;
8652;SDS011;4364;52.426;9.424;2024-02-21T05:47:05;43.90;;;23.37;;
8652;SDS011;4364;52.426;9.424;2024-02-21T05:49:36;38.93;;;22.30;;
8652;SDS011;4364;52.426;9.424;2024-02-21T05:52:03;38.57;;;22.53;;
8652;SDS011;4364;52.426;9.424;2024-02-21T05:54:32;38.23;;;23.60;;
8652;SDS011;4364;52.426;9.424;2024-02-21T05:56:59;41.33;;;23.57;;
8652;SDS011;4364;52.426;9.424;2024-02-21T05:59:25;42.43;;;23.37;;
8652;SDS011;4364;52.426;9.424;2024-02-21T06:01:55;38.60;;;24.20;;
8652;SDS011;4364;52.426;9.424;2024-02-21T06:04:25;37.63;;;23.80;;
8652;SDS011;4364;52.426;9.424;2024-02-21T06:06:51;41.30;;;23.53;;
8652;SDS011;4364;52.426;9.424;2024-02-21T06:09:18;39.07;;;23.50;;
8652;SDS011;4364;52.426;9.424;2024-02-21T06:11:44;37.37;;;22.43;;
8652;SDS011;4364;52.426;9.424;2024-02-21T06:14:12;38.07;;;23.10;;
8652;SDS011;4364;52.426;9.424;2024-02-21T06:16:39;37.93;;;22.27;;
8652;SDS011;4364;52.426;9.424;2024-02-21T06:19:06;39.13;;;23.03;;
8652;SDS011;4364;52.426;9.424;2024-02-21T06:21:36;36.50;;;21.93;;
8652;SDS011;4364;52.426;9.424;2024-02-21T06:24:03;35.43;;;21.90;;
8652;SDS011;4364;52.426;9.424;2024-02-21T06:26:30;33.80;;;21.47;;
8652;SDS011;4364;52.426;9.424;2024-02-21T06:28:56;38.27;;;21.63;;
8652;SDS011;4364;52.426;9.424;2024-02-21T06:31:23;36.93;;;22.57;;
8652;SDS011;4364;52.426;9.424;2024-02-21T06:33:50;35.90;;;21.73;;
8652;SDS011;4364;52.426;9.424;2024-02-21T06:36:17;40.90;;;22.97;;
8652;SDS011;4364;52.426;9.424;2024-02-21T06:38:43;37.27;;;21.67;;
8652;SDS011;4364;52.426;9.424;2024-02-21T06:41:16;36.37;;;21.93;;
8652;SDS011;4364;52.426;9.424;2024-02-21T06:43:48;38.93;;;22.83;;
8652;SDS011;4364;52.426;9.424;2024-02-21T06:46:25;37.20;;;22.60;;
8652;SDS011;4364;52.426;9.424;2024-02-21T06:48:52;33.70;;;21.57;;
8652;SDS011;4364;52.426;9.424;2024-02-21T06:51:19;39.60;;;23.40;;
8652;SDS011;4364;52.426;9.424;2024-02-21T06:53:46;35.70;;;22.37;;
8652;SDS011;4364;52.426;9.424;2024-02-21T06:56:12;35.47;;;22.33;;
8652;SDS011;4364;52.426;9.424;2024-02-21T06:58:39;38.10;;;22.47;;
8652;SDS011;4364;52.426;9.424;2024-02-21T07:01:07;36.07;;;22.53;;
8652;SDS011;4364;52.426;9.424;2024-02-21T07:03:34;35.50;;;20.93;;
8652;SDS011;4364;52.426;9.424;2024-02-21T07:06:00;32.03;;;20.83;;
8652;SDS011;4364;52.426;9.424;2024-02-21T07:08:27;39.13;;;21.17;;
8652;SDS011;4364;52.426;9.424;2024-02-21T07:10:54;38.40;;;21.67;;
8652;SDS011;4364;52.426;9.424;2024-02-21T07:13:20;37.97;;;22.00;;
8652;SDS011;4364;52.426;9.424;2024-02-21T07:15:48;36.10;;;21.17;;
8652;SDS011;4364;52.426;9.424;2024-02-21T07:18:15;37.07;;;21.53;;
8652;SDS011;4364;52.426;9.424;2024-02-21T07:20:42;33.53;;;20.00;;
8652;SDS011;4364;52.426;9.424;2024-02-21T07:23:08;31.90;;;21.37;;
8652;SDS011;4364;52.426;9.424;2024-02-21T07:25:35;33.63;;;21.50;;
8652;SDS011;4364;52.426;9.424;2024-02-21T07:28:02;36.80;;;22.00;;
8652;SDS011;4364;52.426;9.424;2024-02-21T07:30:29;35.67;;;20.47;;
8652;SDS011;4364;52.426;9.424;2024-02-21T07:32:55;34.90;;;20.60;;
8652;SDS011;4364;52.426;9.424;2024-02-21T07:35:22;31.10;;;19.87;;
8652;SDS011;4364;52.426;9.424;2024-02-21T07:37:49;33.80;;;19.80;;
8652;SDS011;4364;52.426;9.424;2024-02-21T07:40:16;36.07;;;20.10;;
8652;SDS011;4364;52.426;9.424;2024-02-21T07:42:43;33.90;;;20.93;;
8652;SDS011;4364;52.426;9.424;2024-02-21T07:45:14;33.50;;;19.60;;
8652;SDS011;4364;52.426;9.424;2024-02-21T07:47:40;33.63;;;20.20;;
8652;SDS011;4364;52.426;9.424;2024-02-21T07:50:07;36.33;;;20.60;;
8652;SDS011;4364;52.426;9.424;2024-02-21T07:52:34;33.33;;;19.30;;
8652;SDS011;4364;52.426;9.424;2024-02-21T07:55:01;31.67;;;21.07;;
8652;SDS011;4364;52.426;9.424;2024-02-21T07:57:27;34.80;;;21.10;;
8652;SDS011;4364;52.426;9.424;2024-02-21T07:59:54;37.73;;;20.60;;
8652;SDS011;4364;52.426;9.424;2024-02-21T08:02:20;35.43;;;19.93;;
8652;SDS011;4364;52.426;9.424;2024-02-21T08:04:47;30.23;;;20.70;;
8652;SDS011;4364;52.426;9.424;2024-02-21T08:07:13;35.73;;;18.80;;
8652;SDS011;4364;52.426;9.424;2024-02-21T08:09:40;31.57;;;19.77;;
8652;SDS011;4364;52.426;9.424;2024-02-21T08:12:07;32.03;;;20.40;;
8652;SDS011;4364;52.426;9.424;2024-02-21T08:14:33;32.97;;;19.43;;
8652;SDS011;4364;52.426;9.424;2024-02-21T08:17:00;34.93;;;19.97;;
8652;SDS011;4364;52.426;9.424;2024-02-21T08:19:28;35.73;;;20.80;;
8652;SDS011;4364;52.426;9.424;2024-02-21T08:21:54;32.33;;;20.53;;
8652;SDS011;4364;52.426;9.424;2024-02-21T08:24:21;37.43;;;20.20;;
8652;SDS011;4364;52.426;9.424;2024-02-21T08:26:49;33.73;;;19.20;;
8652;SDS011;4364;52.426;9.424;2024-02-21T08:29:15;39.37;;;20.73;;
8652;SDS011;4364;52.426;9.424;2024-02-21T08:31:42;29.43;;;19.67;;
8652;SDS011;4364;52.426;9.424;2024-02-21T08:34:08;30.07;;;19.37;;
8652;SDS011;4364;52.426;9.424;2024-02-21T08:36:35;31.03;;;18.73;;
8652;SDS011;4364;52.426;9.424;2024-02-21T08:39:03;37.73;;;18.83;;
8652;SDS011;4364;52.426;9.424;2024-02-21T08:41:31;33.53;;;18.33;;
8652;SDS011;4364;52.426;9.424;2024-02-21T08:44:17;29.77;;;16.97;;
8652;SDS011;4364;52.426;9.424;2024-02-21T08:46:43;26.80;;;15.93;;
8652;SDS011;4364;52.426;9.424;2024-02-21T08:49:10;27.63;;;15.67;;
8652;SDS011;4364;52.426;9.424;2024-02-21T08:51:37;22.50;;;15.20;;
8652;SDS011;4364;52.426;9.424;2024-02-21T08:54:04;28.87;;;14.80;;
8652;SDS011;4364;52.426;9.424;2024-02-21T08:56:30;21.50;;;13.60;;
8652;SDS011;4364;52.426;9.424;2024-02-21T08:58:57;23.20;;;13.87;;
8652;SDS011;4364;52.426;9.424;2024-02-21T09:01:24;24.63;;;14.20;;
8652;SDS011;4364;52.426;9.424;2024-02-21T09:03:51;22.57;;;13.07;;
8652;SDS011;4364;52.426;9.424;2024-02-21T09:06:20;23.30;;;13.53;;
8652;SDS011;4364;52.426;9.424;2024-02-21T09:08:46;19.43;;;12.37;;
8652;SDS011;4364;52.426;9.424;2024-02-21T09:11:13;22.37;;;11.30;;
8652;SDS011;4364;52.426;9.424;2024-02-21T09:13:40;21.80;;;12.20;;
8652;SDS011;4364;52.426;9.424;2024-02-21T09:16:06;17.57;;;11.33;;
8652;SDS011;4364;52.426;9.424;2024-02-21T09:18:33;18.13;;;10.57;;
8652;SDS011;4364;52.426;9.424;2024-02-21T09:20:59;25.53;;;10.90;;
8652;SDS011;4364;52.426;9.424;2024-02-21T09:23:29;16.70;;;9.90;;
8652;SDS011;4364;52.426;9.424;2024-02-21T09:25:58;17.00;;;9.80;;
8652;SDS011;4364;52.426;9.424;2024-02-21T09:28:28;21.33;;;10.37;;
8652;SDS011;4364;52.426;9.424;2024-02-21T09:30:55;15.93;;;10.20;;
8652;SDS011;4364;52.426;9.424;2024-02-21T09:33:21;18.30;;;10.47;;
8652;SDS011;4364;52.426;9.424;2024-02-21T09:35:57;14.77;;;9.23;;
8652;SDS011;4364;52.426;9.424;2024-02-21T09:38:24;17.87;;;9.03;;
8652;SDS011;4364;52.426;9.424;2024-02-21T09:40:54;19.13;;;9.37;;
8652;SDS011;4364;52.426;9.424;2024-02-21T09:43:27;17.57;;;8.83;;
8652;SDS011;4364;52.426;9.424;2024-02-21T09:45:54;17.20;;;9.90;;
8652;SDS011;4364;52.426;9.424;2024-02-21T09:48:29;18.77;;;10.00;;
8652;SDS011;4364;52.426;9.424;2024-02-21T09:51:07;16.03;;;8.70;;
8652;SDS011;4364;52.426;9.424;2024-02-21T09:53:39;15.13;;;8.60;;
8652;SDS011;4364;52.426;9.424;2024-02-21T09:56:07;20.07;;;8.53;;
8652;SDS011;4364;52.426;9.424;2024-02-21T09:58:36;18.27;;;8.57;;
8652;SDS011;4364;52.426;9.424;2024-02-21T10:01:03;16.13;;;8.40;;
8652;SDS011;4364;52.426;9.424;2024-02-21T10:03:50;15.77;;;7.73;;
8652;SDS011;4364;52.426;9.424;2024-02-21T10:06:17;14.00;;;7.57;;
8652;SDS011;4364;52.426;9.424;2024-02-21T10:08:44;14.57;;;7.70;;
8652;SDS011;4364;52.426;9.424;2024-02-21T10:11:24;18.10;;;7.83;;
8652;SDS011;4364;52.426;9.424;2024-02-21T10:14:02;14.03;;;7.50;;
8652;SDS011;4364;52.426;9.424;2024-02-21T10:16:30;16.60;;;7.37;;
8652;SDS011;4364;52.426;9.424;2024-02-21T10:18:57;16.57;;;7.63;;
8652;SDS011;4364;52.426;9.424;2024-02-21T10:21:23;15.13;;;7.87;;
8652;SDS011;4364;52.426;9.424;2024-02-21T10:23:50;13.93;;;7.73;;
8652;SDS011;4364;52.426;9.424;2024-02-21T10:26:20;16.13;;;7.73;;
8652;SDS011;4364;52.426;9.424;2024-02-21T10:28:47;12.47;;;7.47;;
8652;SDS011;4364;52.426;9.424;2024-02-21T10:31:25;15.57;;;7.13;;
8652;SDS011;4364;52.426;9.424;2024-02-21T10:33:59;14.10;;;7.60;;
8652;SDS011;4364;52.426;9.424;2024-02-21T10:36:30;16.33;;;7.13;;
8652;SDS011;4364;52.426;9.424;2024-02-21T10:38:57;12.37;;;6.43;;
8652;SDS011;4364;52.426;9.424;2024-02-21T10:41:24;13.30;;;6.90;;
8652;SDS011;4364;52.426;9.424;2024-02-21T10:43:51;11.27;;;6.37;;
8652;SDS011;4364;52.426;9.424;2024-02-21T10:46:21;12.60;;;6.53;;
8652;SDS011;4364;52.426;9.424;2024-02-21T10:48:54;14.10;;;6.67;;
8652;SDS011;4364;52.426;9.424;2024-02-21T10:51:33;14.60;;;6.67;;
8652;SDS011;4364;52.426;9.424;2024-02-21T10:56:49;10.90;;;5.70;;
8652;SDS011;4364;52.426;9.424;2024-02-21T10:59:17;10.50;;;5.57;;
8652;SDS011;4364;52.426;9.424;2024-02-21T11:01:44;8.77;;;5.33;;
8652;SDS011;4364;52.426;9.424;2024-02-21T11:04:11;12.53;;;5.60;;
8652;SDS011;4364;52.426;9.424;2024-02-21T11:06:41;10.70;;;5.13;;
8652;SDS011;4364;52.426;9.424;2024-02-21T11:09:09;9.50;;;4.60;;
8652;SDS011;4364;52.426;9.424;2024-02-21T11:11:38;14.33;;;4.90;;
8652;SDS011;4364;52.426;9.424;2024-02-21T11:14:10;9.73;;;4.97;;
8652;SDS011;4364;52.426;9.424;2024-02-21T11:16:43;6.27;;;4.57;;
8652;SDS011;4364;52.426;9.424;2024-02-21T11:19:24;7.03;;;4.70;;
8652;SDS011;4364;52.426;9.424;2024-02-21T11:21:52;8.20;;;4.77;;
8652;SDS011;4364;52.426;9.424;2024-02-21T11:24:26;9.53;;;4.67;;
8652;SDS011;4364;52.426;9.424;2024-02-21T11:32:13;10.90;;;4.03;;
8652;SDS011;4364;52.426;9.424;2024-02-21T11:34:41;9.03;;;4.40;;
8652;SDS011;4364;52.426;9.424;2024-02-21T11:37:20;7.87;;;4.10;;
8652;SDS011;4364;52.426;9.424;2024-02-21T11:39:46;6.03;;;4.10;;
8652;SDS011;4364;52.426;9.424;2024-02-21T11:42:16;11.63;;;4.30;;
8652;SDS011;4364;52.426;9.424;2024-02-21T11:44:43;7.73;;;4.43;;
8652;SDS011;4364;52.426;9.424;2024-02-21T11:47:09;8.63;;;4.47;;
8652;SDS011;4364;52.426;9.424;2024-02-21T11:49:37;7.27;;;3.87;;
8652;SDS011;4364;52.426;9.424;2024-02-21T11:52:07;7.43;;;4.40;;
8652;SDS011;4364;52.426;9.424;2024-02-21T11:54:34;8.50;;;4.03;;
8652;SDS011;4364;52.426;9.424;2024-02-21T11:57:01;5.87;;;3.83;;
8652;SDS011;4364;52.426;9.424;2024-02-21T11:59:30;5.97;;;4.07;;
8652;SDS011;4364;52.426;9.424;2024-02-21T12:01:58;6.87;;;3.77;;
8652;SDS011;4364;52.426;9.424;2024-02-21T12:04:25;5.57;;;3.77;;
8652;SDS011;4364;52.426;9.424;2024-02-21T12:06:52;8.03;;;4.00;;
8652;SDS011;4364;52.426;9.424;2024-02-21T12:09:22;9.53;;;4.13;;
8652;SDS011;4364;52.426;9.424;2024-02-21T12:11:56;6.83;;;4.47;;
8652;SDS011;4364;52.426;9.424;2024-02-21T12:14:27;6.77;;;4.10;;
8652;SDS011;4364;52.426;9.424;2024-02-21T12:16:55;7.33;;;4.27;;
8652;SDS011;4364;52.426;9.424;2024-02-21T12:19:22;7.20;;;4.50;;
8652;SDS011;4364;52.426;9.424;2024-02-21T12:21:49;8.33;;;4.53;;
8652;SDS011;4364;52.426;9.424;2024-02-21T12:24:21;7.27;;;4.67;;
8652;SDS011;4364;52.426;9.424;2024-02-21T12:26:52;9.60;;;4.77;;
8652;SDS011;4364;52.426;9.424;2024-02-21T12:29:19;10.10;;;5.33;;
8652;SDS011;4364;52.426;9.424;2024-02-21T12:31:46;9.10;;;5.10;;
8652;SDS011;4364;52.426;9.424;2024-02-21T12:34:14;10.07;;;6.03;;
8652;SDS011;4364;52.426;9.424;2024-02-21T12:36:42;11.33;;;5.90;;
8652;SDS011;4364;52.426;9.424;2024-02-21T12:39:10;10.10;;;5.90;;
8652;SDS011;4364;52.426;9.424;2024-02-21T12:41:37;13.70;;;5.93;;
8652;SDS011;4364;52.426;9.424;2024-02-21T12:44:10;12.53;;;6.27;;
8652;SDS011;4364;52.426;9.424;2024-02-21T12:46:40;10.00;;;6.47;;
8652;SDS011;4364;52.426;9.424;2024-02-21T12:49:07;9.83;;;6.50;;
8652;SDS011;4364;52.426;9.424;2024-02-21T12:51:34;12.47;;;7.13;;
8652;SDS011;4364;52.426;9.424;2024-02-21T12:54:01;15.73;;;7.87;;
8652;SDS011;4364;52.426;9.424;2024-02-21T12:56:29;13.20;;;7.63;;
8652;SDS011;4364;52.426;9.424;2024-02-21T12:58:57;14.67;;;8.17;;
8652;SDS011;4364;52.426;9.424;2024-02-21T13:01:24;13.73;;;7.53;;
8652;SDS011;4364;52.426;9.424;2024-02-21T13:03:51;16.13;;;8.43;;
8652;SDS011;4364;52.426;9.424;2024-02-21T13:06:17;15.50;;;8.03;;
8652;SDS011;4364;52.426;9.424;2024-02-21T13:08:45;11.83;;;7.97;;
8652;SDS011;4364;52.426;9.424;2024-02-21T13:11:12;12.97;;;7.70;;
8652;SDS011;4364;52.426;9.424;2024-02-21T13:13:39;12.50;;;7.83;;
8652;SDS011;4364;52.426;9.424;2024-02-21T13:16:06;14.97;;;8.33;;
8652;SDS011;4364;52.426;9.424;2024-02-21T13:18:34;17.10;;;9.10;;
8652;SDS011;4364;52.426;9.424;2024-02-21T13:21:07;13.47;;;8.97;;
8652;SDS011;4364;52.426;9.424;2024-02-21T13:23:33;15.33;;;8.87;;
8652;SDS011;4364;52.426;9.424;2024-02-21T13:26:00;15.50;;;8.63;;
8652;SDS011;4364;52.426;9.424;2024-02-21T13:28:26;17.10;;;8.90;;
8652;SDS011;4364;52.426;9.424;2024-02-21T13:30:54;13.87;;;7.90;;
8652;SDS011;4364;52.426;9.424;2024-02-21T13:33:20;12.13;;;7.10;;
8652;SDS011;4364;52.426;9.424;2024-02-21T13:35:47;15.60;;;8.23;;
8652;SDS011;4364;52.426;9.424;2024-02-21T13:38:13;11.40;;;6.90;;
8652;SDS011;4364;52.426;9.424;2024-02-21T13:40:40;14.53;;;7.47;;
8652;SDS011;4364;52.426;9.424;2024-02-21T13:43:08;9.13;;;6.77;;
8652;SDS011;4364;52.426;9.424;2024-02-21T13:45:37;11.93;;;7.17;;
8652;SDS011;4364;52.426;9.424;2024-02-21T13:48:04;16.30;;;8.37;;
8652;SDS011;4364;52.426;9.424;2024-02-21T13:50:32;15.17;;;8.60;;
8652;SDS011;4364;52.426;9.424;2024-02-21T13:53:06;12.87;;;6.93;;
8652;SDS011;4364;52.426;9.424;2024-02-21T13:55:32;13.33;;;5.77;;
8652;SDS011;4364;52.426;9.424;2024-02-21T13:57:59;11.83;;;6.40;;
8652;SDS011;4364;52.426;9.424;2024-02-21T14:00:25;9.13;;;5.50;;
8652;SDS011;4364;52.426;9.424;2024-02-21T14:02:53;9.80;;;5.27;;
8652;SDS011;4364;52.426;9.424;2024-02-21T14:05:20;8.13;;;4.83;;
8652;SDS011;4364;52.426;9.424;2024-02-21T14:07:47;14.73;;;6.43;;
8652;SDS011;4364;52.426;9.424;2024-02-21T14:10:14;7.37;;;4.60;;
8652;SDS011;4364;52.426;9.424;2024-02-21T14:12:40;7.63;;;4.30;;
8652;SDS011;4364;52.426;9.424;2024-02-21T14:15:07;8.87;;;4.00;;
8652;SDS011;4364;52.426;9.424;2024-02-21T14:17:35;5.73;;;3.63;;
8652;SDS011;4364;52.426;9.424;2024-02-21T14:20:02;8.87;;;3.93;;
8652;SDS011;4364;52.426;9.424;2024-02-21T14:22:31;8.13;;;4.20;;
8652;SDS011;4364;52.426;9.424;2024-02-21T14:24:57;12.33;;;5.73;;
8652;SDS011;4364;52.426;9.424;2024-02-21T14:27:24;22.37;;;8.70;;
8652;SDS011;4364;52.426;9.424;2024-02-21T14:29:50;11.30;;;5.10;;
8652;SDS011;4364;52.426;9.424;2024-02-21T14:32:17;19.53;;;7.33;;
8652;SDS011;4364;52.426;9.424;2024-02-21T14:34:43;15.87;;;7.20;;
8652;SDS011;4364;52.426;9.424;2024-02-21T14:37:10;11.17;;;4.70;;
8652;SDS011;4364;52.426;9.424;2024-02-21T14:39:37;6.47;;;2.83;;
8652;SDS011;4364;52.426;9.424;2024-02-21T14:42:03;8.60;;;4.10;;
8652;SDS011;4364;52.426;9.424;2024-02-21T14:44:30;7.23;;;3.50;;
8652;SDS011;4364;52.426;9.424;2024-02-21T14:46:56;6.47;;;3.37;;
8652;SDS011;4364;52.426;9.424;2024-02-21T14:49:23;6.87;;;3.40;;
8652;SDS011;4364;52.426;9.424;2024-02-21T14:51:51;6.40;;;3.23;;
8652;SDS011;4364;52.426;9.424;2024-02-21T14:54:18;7.83;;;3.80;;
8652;SDS011;4364;52.426;9.424;2024-02-21T14:56:45;17.70;;;6.77;;
8652;SDS011;4364;52.426;9.424;2024-02-21T14:59:13;22.13;;;8.80;;
8652;SDS011;4364;52.426;9.424;2024-02-21T15:01:51;12.07;;;5.43;;
8652;SDS011;4364;52.426;9.424;2024-02-21T15:04:17;10.23;;;4.80;;
8652;SDS011;4364;52.426;9.424;2024-02-21T15:06:44;12.50;;;5.10;;
8652;SDS011;4364;52.426;9.424;2024-02-21T15:09:11;8.43;;;4.50;;